• Join FlightAware (Why Join?)
  • Login
  • US Flag 
04:51PM EST


 

Airport Tracker/Info


-or-


 

Live Flight TrackerFlight Track Log ✈ N4612D ✈ 13-Jan-2014 ✈ KMFR - 17S

Flight Track Log - Related Links

Times and Time Zones

All times are in EST time to prevent confusion due to time zone crossing. See the N4612D flight status page for this flight to view local times or setup timezone preferences in your user account.

Time Position Orientation Groundspeed Altitude Reporting Facility
EST Latitude Longitude Course Direction KTS MPH feet Rate Location/Type
09:24PM 42.5082 -122.8813 340° North  Level Estimated
09:24PM 42.4889 -122.9139 353° North 76 87 5,200  Level Seattle Center
09:25PM 42.5305 -122.8826 353° North  Level Estimated
09:25PM 42.5086 -122.9167 354° North 73 84 5,800  Level Seattle Center
09:26PM 42.5525 -122.8881 350° North  Level FlightAware Approximate
09:26PM 42.5264 -122.9169 359° North 66 76 6,200  Level Seattle Center
09:27PM 42.5745 -122.8936 350° North  Level FlightAware Approximate
09:27PM 42.5458 -122.9183 357° North 66 76 6,700  Level Seattle Center
09:28PM 42.5965 -122.8990 350° North  Level FlightAware Approximate
09:28PM 42.5644 -122.9183 360° North 68 78 7,100  Level Seattle Center
09:29PM 42.5819 -122.9189 359° North 66 76 7,500 360 Climbing Seattle Center
09:30PM 42.6014 -122.9197 358° North 68 78 7,900 360 Climbing Seattle Center
09:31PM 42.6200 -122.9211 357° North 66 76 8,300 240 Climbing Seattle Center
09:32PM 42.6386 -122.9206 North 68 78 8,500 180 Climbing Seattle Center
09:33PM 42.6647 -122.9211 359° North 87 100 8,700 60 Climbing Seattle Center
09:34PM 42.6911 -122.9228 357° North 98 113 8,700 -60 Level Seattle Center
09:35PM 42.7167 -122.9244 357° North 91 105 8,600 -120 Descending Seattle Center
09:36PM 42.7422 -122.9286 353° North 91 105 8,500  Descending Seattle Center
09:37PM 42.7683 -122.9328 353° North 92 106 8,600  Climbing Seattle Center
09:38PM 42.7922 -122.9361 354° North 91 105 8,600  Level Seattle Center
09:39PM 42.8183 -122.9378 357° North 88 101 8,600 -60 Level Seattle Center
09:40PM 42.8461 -122.9383 359° North 101 116 8,500 -60 Descending Seattle Center
09:41PM 42.8700 -122.9400 357° North 89 102 8,500  Level Seattle Center
09:42PM 42.8953 -122.9450 352° North 89 102 8,500  Level Seattle Center
09:43PM 42.9186 -122.9528 346° North 90 104 8,600  Climbing Seattle Center
09:44PM 42.9431 -122.9544 357° North 92 106 8,600  Level Seattle Center
09:45PM 42.9697 -122.9544 360° North 91 105 8,600 -60 Level Seattle Center
09:46PM 42.9931 -122.9636 344° North 90 104 8,500 -60 Descending Seattle Center
09:47PM 43.0194 -122.9622 North 91 105 8,500  Level Seattle Center
09:48PM 43.0444 -122.9661 354° North 88 101 8,500  Level Seattle Center
09:49PM 43.0683 -122.9747 345° North 85 98 8,600 60 Climbing Seattle Center
09:50PM 43.0931 -122.9806 350° North 87 100 8,700  Climbing Seattle Center
09:51PM 43.1219 -122.9825 357° North 97 112 8,600 -60 Descending Seattle Center
09:52PM 43.1467 -122.9867 353° North 91 105 8,600  Level Seattle Center
09:53PM 43.1733 -122.9886 357° North 95 109 8,600  Level Seattle Center
09:54PM 43.1975 -122.9833 North 96 110 8,600  Level Seattle Center
09:55PM 43.2236 -122.9761 11° North 95 109 8,600 -60 Level Seattle Center
09:56PM 43.2492 -122.9769 359° North 93 107 8,500  Descending Seattle Center
09:57PM 43.2753 -122.9769 360° North 88 101 8,600  Climbing Seattle Center
09:58PM 43.2989 -122.9856 345° North 84 97 8,500  Descending Seattle Center
09:59PM 43.3239 -122.9847 North 88 101 8,600  Climbing Seattle Center
10:00PM 43.3489 -122.9694 24° Northeast 93 107 8,600  Level Seattle Center
10:01PM 43.3758 -122.9636 North 95 109 8,600 -60 Level Seattle Center
10:02PM 43.4028 -122.9553 13° North 99 114 8,500 -60 Descending Seattle Center
10:03PM 43.4286 -122.9472 13° North 96 110 8,500  Level Seattle Center
10:04PM 43.4544 -122.9464 North 89 102 8,500  Level Seattle Center
10:05PM 43.4789 -122.9386 13° North 90 104 8,500  Level Seattle Center
10:06PM 43.5050 -122.9364 North 92 106 8,600  Climbing Seattle Center
10:07PM 43.5300 -122.9269 15° North 92 106 8,600 -60 Level Seattle Center
10:08PM 43.5544 -122.9250 North 94 108 8,500  Descending Seattle Center
10:09PM 43.5772 -122.9267 357° North 84 97 8,600 60 Climbing Seattle Center
10:10PM 43.6014 -122.9231 North 86 99 8,700  Climbing Seattle Center
10:11PM 43.6281 -122.9186 North 94 108 8,600 -60 Descending Seattle Center
10:12PM 43.6539 -122.9175 North 92 106 8,600 -60 Level Seattle Center
10:13PM 43.6783 -122.9275 344° North 88 101 8,500 -60 Descending Seattle Center
10:14PM 43.7047 -122.9308 355° North 92 106 8,500  Level Seattle Center
10:15PM 43.7269 -122.9364 350° North 80 92 8,600  Climbing Seattle Center
10:16PM 43.7494 -122.9400 353° North 80 92 8,600 -60 Level Seattle Center
10:17PM 43.7747 -122.9406 359° North 89 102 8,500 -60 Descending Seattle Center
10:18PM 43.8006 -122.9433 356° North 90 104 8,500  Level Seattle Center
10:19PM 43.8228 -122.9472 353° North 85 98 8,500  Level Seattle Center
10:20PM 43.8456 -122.9506 354° North 80 92 8,500  Level Seattle Center
10:21PM 43.8697 -122.9536 355° North 85 98 8,500  Level Seattle Center
10:22PM 43.8958 -122.9544 359° North 91 105 8,500  Level Seattle Center
10:23PM 43.9197 -122.9594 351° North 86 99 8,600  Climbing Seattle Center
10:24PM 43.9436 -122.9614 357° North 84 97 8,600  Level Seattle Center
10:25PM 43.9683 -122.9644 355° North 88 101 8,600 -60 Level Seattle Center
10:26PM 43.9956 -122.9586 North 97 112 8,500 -60 Descending Seattle Center
10:27PM 44.0217 -122.9525 10° North 94 108 8,500  Level Seattle Center
10:28PM 44.0447 -122.9514 North 82 94 8,600  Climbing Seattle Center
10:29PM 44.0678 -122.9542 355° North 82 94 8,600 -60 Level Seattle Center
10:30PM 44.0953 -122.9528 North 96 110 8,500 -60 Descending Seattle Center
10:31PM 44.1211 -122.9528 360° North 92 106 8,500  Level Seattle Center
10:32PM 44.1458 -122.9536 359° North 88 101 8,600  Climbing Seattle Center
10:33PM 44.1681 -122.9528 North 85 98 8,600  Level Seattle Center
10:34PM 44.1922 -122.9503 North 86 99 8,600  Level Seattle Center
10:35PM 44.2150 -122.9517 357° North 82 94 8,600  Level Seattle Center
10:36PM 44.2381 -122.9539 356° North 84 97 8,600 -60 Level Seattle Center
10:38PM 44.2628 -122.9528 North 86 99 8,500 -60 Descending Seattle Center
10:39PM 44.2856 -122.9533 359° North 82 94 8,500  Level Seattle Center
10:40PM 44.3069 -122.9536 359° North 76 87 8,600  Climbing Seattle Center
10:41PM 44.3278 -122.9558 356° North 78 90 8,600  Level Seattle Center
10:42PM 44.3497 -122.9522 North 79 91 8,600  Level Seattle Center
10:43PM 44.3711 -122.9494 North 78 90 8,600  Level Seattle Center
10:44PM 44.3928 -122.9472 North 78 90 8,600  Level Seattle Center
10:45PM 44.4150 -122.9472 360° North 80 92 8,600  Level Seattle Center
10:46PM 44.4353 -122.9550 345° North 77 89 8,600  Level Seattle Center
10:47PM 44.4561 -122.9578 355° North 75 86 8,600  Level Seattle Center
10:48PM 44.4764 -122.9589 358° North 74 85 8,600  Level Seattle Center
10:49PM 44.4986 -122.9594 359° North 79 91 8,600 -60 Level Seattle Center
10:50PM 44.5206 -122.9622 355° North 80 92 8,500 -60 Descending Seattle Center
10:51PM 44.5467 -122.9647 356° North 78 90 8,500  Level Seattle Center
10:52PM 44.5672 -122.9647 360° North 75 86 8,600  Climbing Seattle Center
10:53PM 44.5886 -122.9650 359° North 77 89 8,500 -60 Descending Seattle Center
10:54PM 44.6061 -122.9656 359° North 75 86 8,500  Level Seattle Center
10:55PM 44.6269 -122.9664 358° North 75 86 8,500  Level Seattle Center
10:56PM 44.6489 -122.9667 359° North 77 89 8,500  Level Seattle Center
10:57PM 44.6728 -122.9664 360° North 73 84 8,500  Level Seattle Center
10:58PM 44.6928 -122.9672 358° North 72 83 8,500  Level Seattle Center
10:59PM 44.7136 -122.9719 351° North 74 85 8,600  Climbing Seattle Center
11:00PM 44.7344 -122.9725 359° North 76 87 8,500  Descending Seattle Center
11:01PM 44.7542 -122.9803 344° North 75 86 8,600  Climbing Seattle Center
11:02PM 44.7717 -122.9881 342° North 69 79 8,600  Level Seattle Center
11:03PM 44.7903 -122.9906 355° North 67 77 8,600  Level Seattle Center
11:04PM 44.8106 -122.9908 359° North 71 82 8,600  Level Seattle Center
11:05PM 44.8308 -122.9911 359° North 73 84 8,600 -60 Level Seattle Center
11:06PM 44.8517 -122.9942 354° North 74 85 8,500 -60 Descending Seattle Center
11:07PM 44.8742 -122.9925 North 79 91 8,500  Level Seattle Center
11:08PM 44.8967 -122.9917 North 80 92 8,500  Level Seattle Center
11:09PM 44.9181 -122.9892 North 79 91 8,500  Level Seattle Center
11:10PM 44.9397 -122.9875 North 78 90 8,500  Level Seattle Center
11:11PM 44.9664 -122.9881 359° North 80 92 8,500  Level Seattle Center
11:12PM 44.9903 -122.9883 360° North 84 97 8,500 -180 Level Seattle Center
11:13PM 45.0036 -122.9894 357° North 86 99 8,300 -540 Descending Seattle Center
11:13PM 45.0153 -122.9861 11° North 88 101 8,000 -720 Descending Seattle Center
11:14PM 45.0333 -122.9867 359° North 100 115 7,500 -720 Descending Seattle Center
11:14PM 45.0425 -122.9858 North 92 106 7,300 -780 Descending Seattle Center
11:15PM 45.0594 -122.9883 354° North 101 116 6,800 -900 Descending Seattle Center
11:15PM 45.0706 -122.9847 13° North 97 112 6,400 -360 Descending Seattle Center
11:16PM 45.0986 -122.9831 North 98 113 6,300 -120 Descending Seattle Center
11:18PM 45.1364 -122.9778 North  Level FlightAware Approximate
11:25PM 45.3125 -122.9667 North  Level FlightAware Approximate
11:26PM 45.3375 -122.9667 North  Level FlightAware Approximate
11:27PM 45.3438 -122.9822 240° Southwest  Level FlightAware Approximate
11:28PM 45.3314 -123.0132 240° Southwest  Level FlightAware Approximate
11:29PM 45.3190 -123.0441 240° Southwest  Level FlightAware Approximate
11:30PM 45.3167 -123.0500 240° Southwest  Level FlightAware Approximate
11:31PM 45.3237 -123.0543 240° Southwest  Level Estimated
11:32PM 45.3237 -123.0543 240° Southwest  Level Estimated
11:33PM 45.3237 -123.0543 240° Southwest  Level Estimated
11:34PM 45.3237 -123.0543 240° Southwest  Level Estimated
11:35PM 45.3237 -123.0543 240° Southwest  Level Estimated